Buoy 56916

sailwx.info

Track history (hours):
 
Tides and Currents Weather Stations Pressure Air Temp Water Temp Dewpoint Dewpoint Depression Visibility Wind Speed Wind Dir Waves Ship Positions

Drifting buoy 56916

Last reported at 2017-Mar-28 23:00 UTC. Time now 2017-Mar-29 05:26 UTC.
Position S 48°12' E 163°10'.

Barometer 1011.7 mb
Water temperature 11.9 ° C

Date/timePositionNaut miles runAvg speedWind from/ knotsBaromVisibWave heightAir tempDewpointWater temp
2017-Mar-28 23:00S 48°12' E 163°10'2 0.9 1011.7 11.9
2017-Mar-28 21:00S 48°11' E 163°08'0 0.0 1011.8 11.8
2017-Mar-28 20:00S 48°11' E 163°08'0 0.0 1011.6 11.8
2017-Mar-28 19:00S 48°11' E 163°08'0 0.4 1011.3 11.8
2017-Mar-28 18:00S 48°11' E 163°07'1 0.4 1011.1 11.8
2017-Mar-28 16:00S 48°11' E 163°07'1 0.6 1011.0 11.8
2017-Mar-28 15:00S 48°11' E 163°07'1 0.4 1011.2 11.8
2017-Mar-28 12:00S 48°13' E 163°06'1 1.0 1011.4 11.8
2017-Mar-28 11:00S 48°12' E 163°05'1 1.2 1011.6 11.8
2017-Mar-28 10:00S 48°12' E 163°03'1 1.3 1011.6 11.8
2017-Mar-28 09:00S 48°11' E 163°02'0 0.4 1011.3 11.8
2017-Mar-28 08:00S 48°11' E 163°02'1 0.6 1010.8 11.8
2017-Mar-28 06:00S 48°10' E 163°02'0 0.0 1009.6 11.9
2017-Mar-28 05:00S 48°10' E 163°02'1 0.7 1008.9 11.9
2017-Mar-28 04:00S 48°10' E 163°02'0 0.0 1008.6 12.0
2017-Mar-28 03:00S 48°10' E 163°02'0 0.0 1008.2 11.9
2017-Mar-28 02:00S 48°10' E 163°02'3 1.0 1007.9 11.9
2017-Mar-27 23:00S 48°12' E 162°59'1 1.0 1006.4 11.8
2017-Mar-27 22:00S 48°11' E 162°58'1 1.0 1005.7 11.8
2017-Mar-27 21:00S 48°11' E 162°56'1 1.3 1005.3 11.8
2017-Mar-27 20:00S 48°10' E 162°55'1 1.3 1004.9 11.8
2017-Mar-27 19:00S 48°09' E 162°54'0 0.4 1004.6 11.8
2017-Mar-27 18:00S 48°09' E 162°55'1 1.0 1005.7 11.9
2017-Mar-27 17:00S 48°08' E 162°53'1 0.7 1005.3 11.9
2017-Mar-27 16:00S 48°08' E 162°54'1 0.7 1006.4 11.9
2017-Mar-27 15:00S 48°07' E 162°53'1 1.0 1006.9 11.9
2017-Mar-27 14:00S 48°07' E 162°52'0 0.4 1007.9 11.9
2017-Mar-27 13:00S 48°07' E 162°53'0 0.0 1008.1 11.9
2017-Mar-27 12:00S 48°07' E 162°53'2 1.2 1009.5 11.9
2017-Mar-27 10:00S 48°05' E 162°50'0 0.0 1010.9 12.0
2017-Mar-27 09:00S 48°05' E 162°50'1 1.0 1011.6 12.0
2017-Mar-27 08:00S 48°04' E 162°49'0 0.0 1012.6 12.0
2017-Mar-27 07:00S 48°04' E 162°49'1 0.6 1013.2 12.1
2017-Mar-27 06:00S 48°04' E 162°49'0 0.0 1013.9 12.1
2017-Mar-27 05:00S 48°04' E 162°49'1 0.7 1014.1 12.2
2017-Mar-27 04:00S 48°03' E 162°50'0 0.0 1015.3 12.3
2017-Mar-27 03:00S 48°03' E 162°50'1 0.2 1016.2 12.3
2017-Mar-26 23:00S 48°03' E 162°49'0 0.0 1018.1 11.9
2017-Mar-26 22:00S 48°03' E 162°49'0 0.0 1018.0 11.9
2017-Mar-26 20:00S 48°03' E 162°49'0 0.4 1017.7 11.9
2017-Mar-26 19:00S 48°03' E 162°48'0 0.4 1017.5 11.9
2017-Mar-26 18:00S 48°03' E 162°47'0 0.2 1017.1 11.9
2017-Mar-26 16:00S 48°03' E 162°47'1 0.6 1016.6 11.9
2017-Mar-26 15:00S 48°04' E 162°47'0 0.0 1016.6 11.9
2017-Mar-26 14:00S 48°04' E 162°47'0 0.4 1016.6 11.9
2017-Mar-26 13:00S 48°04' E 162°46'1 0.5 1016.6 11.9
2017-Mar-26 11:00S 48°03' E 162°45'1 0.6 1016.5 11.9
2017-Mar-26 10:00S 48°04' E 162°45'1 0.5 1016.5 11.9
2017-Mar-26 08:00S 48°03' E 162°44'0 0.0 1015.5 11.9
2017-Mar-26 07:00S 48°03' E 162°44'1 0.3 1015.1 12.0
2017-Mar-26 05:00S 48°04' E 162°44'0 0.2 1014.9 12.0
2017-Mar-26 03:00S 48°04' E 162°43'2 0.4 1015.5 12.0
2017-Mar-25 22:00S 48°03' E 162°40'1 0.6 1016.8 11.9
2017-Mar-25 21:00S 48°02' E 162°40'1 0.3 1016.6 11.9
2017-Mar-25 19:00S 48°02' E 162°40'0 0.2 1016.8 11.8
2017-Mar-25 17:00S 48°02' E 162°41'0 0.0 1017.3 11.8
2017-Mar-25 16:00S 48°02' E 162°41'0 0.0 1017.8 11.8
2017-Mar-25 15:00S 48°02' E 162°41'0 0.4 1018.1 11.8
2017-Mar-25 14:00S 48°02' E 162°41'1 0.6 1018.5 11.9
2017-Mar-25 13:00S 48°02' E 162°41'0 0.0 1019.0 11.9
2017-Mar-25 12:00S 48°02' E 162°41'0 0.4 1019.2 11.9
2017-Mar-25 11:00S 48°02' E 162°41'1 0.4 1019.3 11.9
2017-Mar-25 09:00S 48°02' E 162°40'1 0.4 1019.6 11.9
2017-Mar-25 07:00S 48°01' E 162°40'1 0.3 1019.6 12.0
2017-Mar-25 05:00S 48°01' E 162°40'1 0.6 1019.7 12.1
2017-Mar-25 04:00S 48°01' E 162°40'0 0.0 1019.9 12.0
2017-Mar-25 03:00S 48°01' E 162°40'1 0.2 1020.1 12.0
2017-Mar-24 23:00S 48°01' E 162°41'0 0.4 1020.7 11.9
2017-Mar-24 22:00S 48°01' E 162°40'0 0.0 1020.3 11.9
2017-Mar-24 21:00S 48°01' E 162°40'0 0.0 1020.2 11.9
2017-Mar-24 20:00S 48°01' E 162°40'0 0.0 1019.8 11.9
2017-Mar-24 19:00S 48°01' E 162°40'1 0.6 1019.5 11.9
2017-Mar-24 18:00S 48°01' E 162°40'1 1.2 1019.3 11.9
2017-Mar-24 17:00S 48°02' E 162°40'1 0.5 1018.8 11.9
2017-Mar-24 15:00S 48°02' E 162°39'0 0.0 1019.0 11.9
2017-Mar-24 14:00S 48°02' E 162°39'1 0.7 1018.9 11.9
2017-Mar-24 13:00S 48°03' E 162°38'0 0.0 1018.7 11.9
2017-Mar-24 11:00S 48°03' E 162°38'1 0.7 1018.3 11.9
2017-Mar-24 10:00S 48°02' E 162°38'0 0.0 1018.0 11.9
2017-Mar-24 09:00S 48°02' E 162°38'0 0.0 1017.0 11.9
2017-Mar-24 06:00S 48°02' E 162°38'1 0.7 1015.1 12.0
2017-Mar-24 05:00S 48°03' E 162°38'3 3.1 1014.6 12.0
2017-Mar-24 04:00S 48°06' E 162°37'0 0.0 1014.3 12.0
2017-Mar-24 03:00S 48°06' E 162°37'1 0.2 1014.1 12.0
2017-Mar-23 23:00S 48°05' E 162°37'2 1.7 1013.8 11.9
2017-Mar-23 22:00S 48°06' E 162°34'0 0.0 1013.7 11.9
2017-Mar-23 21:00S 48°06' E 162°34'1 0.8 1013.8 11.9
2017-Mar-23 20:00S 48°06' E 162°33'0 0.0 1013.4 11.9
2017-Mar-23 19:00S 48°06' E 162°33'1 0.7 1013.2 11.9
2017-Mar-23 18:00S 48°05' E 162°32'1 0.2 1013.5 11.9
2017-Mar-23 15:00S 48°06' E 162°32'1 0.8 1015.0 11.9
2017-Mar-23 14:00S 48°06' E 162°31'1 0.4 1015.6 11.9
2017-Mar-23 12:00S 48°07' E 162°31'1 1.3 1016.8 12.0
2017-Mar-23 11:00S 48°07' E 162°29'1 0.2 1017.4 12.0
2017-Mar-23 08:00S 48°07' E 162°28'1 0.6 1018.1 12.0
2017-Mar-23 06:00S 48°07' E 162°26'1 0.6 1018.5 11.9
2017-Mar-23 05:00S 48°07' E 162°26'1 0.7 1019.1 11.9
2017-Mar-23 04:00S 48°07' E 162°26'0 0.0 1019.5 12.0
2017-Mar-23 03:00S 48°07' E 162°26'2 0.5 1019.8 12.0
2017-Mar-22 23:00S 48°07' E 162°23'1 0.6 1020.8 11.9
2017-Mar-22 22:00S 48°08' E 162°23'1 0.8 1020.9 11.9
2017-Mar-22 21:00S 48°08' E 162°22'1 1.0 1020.9 11.9
2017-Mar-22 20:00S 48°07' E 162°20'0 0.4 1020.8 11.9
2017-Mar-22 19:00S 48°07' E 162°21'1 0.7 1020.5 11.9
2017-Mar-22 17:00S 48°08' E 162°19'0 0.2 1020.6 11.9
2017-Mar-22 15:00S 48°08' E 162°19'1 0.7 1020.7 11.9
2017-Mar-22 14:00S 48°08' E 162°18'0 0.0 1020.4 11.9
2017-Mar-22 13:00S 48°08' E 162°18'1 0.6 1020.6 11.9
2017-Mar-22 12:00S 48°09' E 162°18'1 0.4 1020.4 11.9
2017-Mar-22 10:00S 48°09' E 162°17'0 0.0 1019.7 11.9
2017-Mar-22 09:00S 48°09' E 162°17'0 0.4 1019.1 11.9
2017-Mar-22 08:00S 48°09' E 162°16'1 1.0 1018.6 11.9
2017-Mar-22 07:00S 48°10' E 162°15'0 0.0 1018.3 11.9
2017-Mar-22 06:00S 48°10' E 162°15'0 0.4 1017.6 11.9
2017-Mar-22 05:00S 48°10' E 162°16'1 1.3 1017.2 11.9
2017-Mar-22 04:00S 48°10' E 162°14'0 0.4 1016.8 11.9
2017-Mar-22 03:00S 48°10' E 162°14'1 0.2 1016.5 11.9
2017-Mar-21 22:00S 48°10' E 162°13'1 0.7 1014.5 11.9
2017-Mar-21 21:00S 48°11' E 162°13'1 0.4 1013.8 12.0
2017-Mar-21 19:00S 48°11' E 162°13'2 1.6 1012.1 12.0
2017-Mar-21 18:00S 48°11' E 162°11'0 0.0 1011.4 12.0
2017-Mar-21 17:00S 48°11' E 162°11'0 0.0 1011.7 12.0
2017-Mar-21 16:00S 48°11' E 162°11'1 1.3 1011.9 12.0
2017-Mar-21 15:00S 48°11' E 162°09'0 0.0 1012.3 12.0
2017-Mar-21 14:00S 48°11' E 162°09'1 0.4 1012.5 12.0
2017-Mar-21 12:00S 48°11' E 162°08'0 0.4 1013.0 11.9
2017-Mar-21 11:00S 48°11' E 162°08'0 0.0 1013.6 11.8
2017-Mar-21 10:00S 48°11' E 162°08'1 1.0 1013.9 11.8
2017-Mar-21 09:00S 48°11' E 162°07'1 0.6 1014.0 11.8
2017-Mar-21 08:00S 48°12' E 162°07'2 1.6 1013.8 11.8
2017-Mar-21 07:00S 48°12' E 162°05'0 0.0 1013.7 11.8
2017-Mar-21 06:00S 48°12' E 162°05'1 1.3 1013.9 11.8
2017-Mar-21 05:00S 48°11' E 162°03'0 0.0 1014.1 11.7
2017-Mar-21 04:00S 48°11' E 162°03'0 0.0 1014.7 11.7
2017-Mar-21 03:00S 48°11' E 162°03'3 0.6 1015.1 11.7
2017-Mar-20 23:00S 48°09' E 162°04'1 1.2 1016.6 11.5
2017-Mar-20 22:00S 48°10' E 162°04'1 0.8 1016.7 11.4
2017-Mar-20 21:00S 48°10' E 162°03'1 0.6 1016.8 11.4
2017-Mar-20 20:00S 48°11' E 162°03'2 1.6 1016.6 11.5
2017-Mar-20 19:00S 48°11' E 162°01'1 0.7 1016.5 11.5
2017-Mar-20 18:00S 48°11' E 162°00'1 0.7 1016.8 11.5
2017-Mar-20 16:00S 48°11' E 161°58'1 1.0 1017.1 11.4
2017-Mar-20 15:00S 48°10' E 161°57'0 0.0 1017.0 11.3
2017-Mar-20 14:00S 48°10' E 161°57'1 1.0 1017.2 11.3
2017-Mar-20 13:00S 48°10' E 161°58'0 0.4 1017.1 11.3
2017-Mar-20 12:00S 48°10' E 161°59'0 0.0 1016.9 11.3
2017-Mar-20 11:00S 48°10' E 161°59'0 0.0 1016.9 11.3
2017-Mar-20 10:00S 48°10' E 161°59'1 0.6 1016.9 11.1
2017-Mar-20 08:00S 48°11' E 161°59'2 1.0 1015.4 11.1
2017-Mar-20 06:00S 48°13' E 161°58'0 0.0 1014.4 11.1
2017-Mar-20 05:00S 48°13' E 161°58'1 0.8 1013.5 11.1
2017-Mar-20 04:00S 48°13' E 161°56'2 0.5 1012.3 11.1
2017-Mar-19 23:00S 48°15' E 161°57'0 0.4 1006.9 11.1
2017-Mar-19 22:00S 48°15' E 161°56'0 0.4 1006.1 11.1
2017-Mar-19 21:00S 48°15' E 161°57'1 0.8 1005.3 11.1
2017-Mar-19 20:00S 48°15' E 161°56'0 0.0 1005.2 11.1
2017-Mar-19 19:00S 48°15' E 161°56'0 0.4 1004.8 11.1
2017-Mar-19 18:00S 48°15' E 161°55'0 0.0 1005.5 11.1
2017-Mar-19 17:00S 48°15' E 161°55'0 0.4 1005.7 11.1
2017-Mar-19 16:00S 48°15' E 161°55'1 0.8 1006.9 11.1
2017-Mar-19 15:00S 48°15' E 161°53'0 0.0 1007.8 11.1
2017-Mar-19 14:00S 48°15' E 161°53'0 0.4 1008.0 11.1
2017-Mar-19 13:00S 48°15' E 161°53'1 0.4 1008.5 11.1
2017-Mar-19 11:00S 48°16' E 161°52'0 0.0 1009.7 11.1
2017-Mar-19 10:00S 48°16' E 161°52'1 0.6 1010.0 11.1
2017-Mar-19 09:00S 48°15' E 161°52'1 0.8 1011.1 11.2
2017-Mar-19 08:00S 48°15' E 161°51'0 0.0 1010.8 11.2
2017-Mar-19 07:00S 48°15' E 161°51'0 0.4 1010.5 11.2
2017-Mar-19 06:00S 48°15' E 161°52'1 1.2 1012.0 11.2
2017-Mar-19 05:00S 48°15' E 161°50'0 0.0 1012.9 11.2
2017-Mar-19 04:00S 48°15' E 161°50'2 1.6 1014.1 11.2
2017-Mar-19 03:00S 48°15' E 161°47'1 0.2 1014.8 11.2
2017-Mar-18 23:00S 48°14' E 161°46'   1019.4 11.1
Track history (hours):
 
Tides and Currents Weather Stations Pressure Air Temp Water Temp Dewpoint Dewpoint Depression Visibility Wind Speed Wind Dir Waves Ship Positions

Drifting buoy 56916

Last reported at 2017-Mar-28 23:00 UTC. Time now 2017-Mar-29 05:26 UTC.
Position S 48°12' E 163°10'.

Barometer 1011.7 mb
Water temperature 11.9 ° C

Date/timePositionNaut miles runAvg speedWind from/ knotsBaromVisibWave heightAir tempDewpointWater temp
2017-Mar-28 23:00S 48°12' E 163°10'2 0.9 1011.7 11.9
2017-Mar-28 21:00S 48°11' E 163°08'0 0.0 1011.8 11.8
2017-Mar-28 20:00S 48°11' E 163°08'0 0.0 1011.6 11.8
2017-Mar-28 19:00S 48°11' E 163°08'0 0.4 1011.3 11.8
2017-Mar-28 18:00S 48°11' E 163°07'1 0.4 1011.1 11.8
2017-Mar-28 16:00S 48°11' E 163°07'1 0.6 1011.0 11.8
2017-Mar-28 15:00S 48°11' E 163°07'1 0.4 1011.2 11.8
2017-Mar-28 12:00S 48°13' E 163°06'1 1.0 1011.4 11.8
2017-Mar-28 11:00S 48°12' E 163°05'1 1.2 1011.6 11.8
2017-Mar-28 10:00S 48°12' E 163°03'1 1.3 1011.6 11.8
2017-Mar-28 09:00S 48°11' E 163°02'0 0.4 1011.3 11.8
2017-Mar-28 08:00S 48°11' E 163°02'1 0.6 1010.8 11.8
2017-Mar-28 06:00S 48°10' E 163°02'0 0.0 1009.6 11.9
2017-Mar-28 05:00S 48°10' E 163°02'1 0.7 1008.9 11.9
2017-Mar-28 04:00S 48°10' E 163°02'0 0.0 1008.6 12.0
2017-Mar-28 03:00S 48°10' E 163°02'0 0.0 1008.2 11.9
2017-Mar-28 02:00S 48°10' E 163°02'3 1.0 1007.9 11.9
2017-Mar-27 23:00S 48°12' E 162°59'1 1.0 1006.4 11.8
2017-Mar-27 22:00S 48°11' E 162°58'1 1.0 1005.7 11.8
2017-Mar-27 21:00S 48°11' E 162°56'1 1.3 1005.3 11.8
2017-Mar-27 20:00S 48°10' E 162°55'1 1.3 1004.9 11.8
2017-Mar-27 19:00S 48°09' E 162°54'0 0.4 1004.6 11.8
2017-Mar-27 18:00S 48°09' E 162°55'1 1.0 1005.7 11.9
2017-Mar-27 17:00S 48°08' E 162°53'1 0.7 1005.3 11.9
2017-Mar-27 16:00S 48°08' E 162°54'1 0.7 1006.4 11.9
2017-Mar-27 15:00S 48°07' E 162°53'1 1.0 1006.9 11.9
2017-Mar-27 14:00S 48°07' E 162°52'0 0.4 1007.9 11.9
2017-Mar-27 13:00S 48°07' E 162°53'0 0.0 1008.1 11.9
2017-Mar-27 12:00S 48°07' E 162°53'2 1.2 1009.5 11.9
2017-Mar-27 10:00S 48°05' E 162°50'0 0.0 1010.9 12.0
2017-Mar-27 09:00S 48°05' E 162°50'1 1.0 1011.6 12.0
2017-Mar-27 08:00S 48°04' E 162°49'0 0.0 1012.6 12.0
2017-Mar-27 07:00S 48°04' E 162°49'1 0.6 1013.2 12.1
2017-Mar-27 06:00S 48°04' E 162°49'0 0.0 1013.9 12.1
2017-Mar-27 05:00S 48°04' E 162°49'1 0.7 1014.1 12.2
2017-Mar-27 04:00S 48°03' E 162°50'0 0.0 1015.3 12.3
2017-Mar-27 03:00S 48°03' E 162°50'1 0.2 1016.2 12.3
2017-Mar-26 23:00S 48°03' E 162°49'0 0.0 1018.1 11.9
2017-Mar-26 22:00S 48°03' E 162°49'0 0.0 1018.0 11.9
2017-Mar-26 20:00S 48°03' E 162°49'0 0.4 1017.7 11.9
2017-Mar-26 19:00S 48°03' E 162°48'0 0.4 1017.5 11.9
2017-Mar-26 18:00S 48°03' E 162°47'0 0.2 1017.1 11.9
2017-Mar-26 16:00S 48°03' E 162°47'1 0.6 1016.6 11.9
2017-Mar-26 15:00S 48°04' E 162°47'0 0.0 1016.6 11.9
2017-Mar-26 14:00S 48°04' E 162°47'0 0.4 1016.6 11.9
2017-Mar-26 13:00S 48°04' E 162°46'1 0.5 1016.6 11.9
2017-Mar-26 11:00S 48°03' E 162°45'1 0.6 1016.5 11.9
2017-Mar-26 10:00S 48°04' E 162°45'1 0.5 1016.5 11.9
2017-Mar-26 08:00S 48°03' E 162°44'0 0.0 1015.5 11.9
2017-Mar-26 07:00S 48°03' E 162°44'1 0.3 1015.1 12.0
2017-Mar-26 05:00S 48°04' E 162°44'0 0.2 1014.9 12.0
2017-Mar-26 03:00S 48°04' E 162°43'2 0.4 1015.5 12.0
2017-Mar-25 22:00S 48°03' E 162°40'1 0.6 1016.8 11.9
2017-Mar-25 21:00S 48°02' E 162°40'1 0.3 1016.6 11.9
2017-Mar-25 19:00S 48°02' E 162°40'0 0.2 1016.8 11.8
2017-Mar-25 17:00S 48°02' E 162°41'0 0.0 1017.3 11.8
2017-Mar-25 16:00S 48°02' E 162°41'0 0.0 1017.8 11.8
2017-Mar-25 15:00S 48°02' E 162°41'0 0.4 1018.1 11.8
2017-Mar-25 14:00S 48°02' E 162°41'1 0.6 1018.5 11.9
2017-Mar-25 13:00S 48°02' E 162°41'0 0.0 1019.0 11.9
2017-Mar-25 12:00S 48°02' E 162°41'0 0.4 1019.2 11.9
2017-Mar-25 11:00S 48°02' E 162°41'1 0.4 1019.3 11.9
2017-Mar-25 09:00S 48°02' E 162°40'1 0.4 1019.6 11.9
2017-Mar-25 07:00S 48°01' E 162°40'1 0.3 1019.6 12.0
2017-Mar-25 05:00S 48°01' E 162°40'1 0.6 1019.7 12.1
2017-Mar-25 04:00S 48°01' E 162°40'0 0.0 1019.9 12.0
2017-Mar-25 03:00S 48°01' E 162°40'1 0.2 1020.1 12.0
2017-Mar-24 23:00S 48°01' E 162°41'0 0.4 1020.7 11.9
2017-Mar-24 22:00S 48°01' E 162°40'0 0.0 1020.3 11.9
2017-Mar-24 21:00S 48°01' E 162°40'0 0.0 1020.2 11.9
2017-Mar-24 20:00S 48°01' E 162°40'0 0.0 1019.8 11.9
2017-Mar-24 19:00S 48°01' E 162°40'1 0.6 1019.5 11.9
2017-Mar-24 18:00S 48°01' E 162°40'1 1.2 1019.3 11.9
2017-Mar-24 17:00S 48°02' E 162°40'1 0.5 1018.8 11.9
2017-Mar-24 15:00S 48°02' E 162°39'0 0.0 1019.0 11.9
2017-Mar-24 14:00S 48°02' E 162°39'1 0.7 1018.9 11.9
2017-Mar-24 13:00S 48°03' E 162°38'0 0.0 1018.7 11.9
2017-Mar-24 11:00S 48°03' E 162°38'1 0.7 1018.3 11.9
2017-Mar-24 10:00S 48°02' E 162°38'0 0.0 1018.0 11.9
2017-Mar-24 09:00S 48°02' E 162°38'0 0.0 1017.0 11.9
2017-Mar-24 06:00S 48°02' E 162°38'1 0.7 1015.1 12.0
2017-Mar-24 05:00S 48°03' E 162°38'3 3.1 1014.6 12.0
2017-Mar-24 04:00S 48°06' E 162°37'0 0.0 1014.3 12.0
2017-Mar-24 03:00S 48°06' E 162°37'1 0.2 1014.1 12.0
2017-Mar-23 23:00S 48°05' E 162°37'2 1.7 1013.8 11.9
2017-Mar-23 22:00S 48°06' E 162°34'0 0.0 1013.7 11.9
2017-Mar-23 21:00S 48°06' E 162°34'1 0.8 1013.8 11.9
2017-Mar-23 20:00S 48°06' E 162°33'0 0.0 1013.4 11.9
2017-Mar-23 19:00S 48°06' E 162°33'1 0.7 1013.2 11.9
2017-Mar-23 18:00S 48°05' E 162°32'1 0.2 1013.5 11.9
2017-Mar-23 15:00S 48°06' E 162°32'1 0.8 1015.0 11.9
2017-Mar-23 14:00S 48°06' E 162°31'1 0.4 1015.6 11.9
2017-Mar-23 12:00S 48°07' E 162°31'1 1.3 1016.8 12.0
2017-Mar-23 11:00S 48°07' E 162°29'1 0.2 1017.4 12.0
2017-Mar-23 08:00S 48°07' E 162°28'1 0.6 1018.1 12.0
2017-Mar-23 06:00S 48°07' E 162°26'1 0.6 1018.5 11.9
2017-Mar-23 05:00S 48°07' E 162°26'1 0.7 1019.1 11.9
2017-Mar-23 04:00S 48°07' E 162°26'0 0.0 1019.5 12.0
2017-Mar-23 03:00S 48°07' E 162°26'2 0.5 1019.8 12.0
2017-Mar-22 23:00S 48°07' E 162°23'1 0.6 1020.8 11.9
2017-Mar-22 22:00S 48°08' E 162°23'1 0.8 1020.9 11.9
2017-Mar-22 21:00S 48°08' E 162°22'1 1.0 1020.9 11.9
2017-Mar-22 20:00S 48°07' E 162°20'0 0.4 1020.8 11.9
2017-Mar-22 19:00S 48°07' E 162°21'1 0.7 1020.5 11.9
2017-Mar-22 17:00S 48°08' E 162°19'0 0.2 1020.6 11.9
2017-Mar-22 15:00S 48°08' E 162°19'1 0.7 1020.7 11.9
2017-Mar-22 14:00S 48°08' E 162°18'0 0.0 1020.4 11.9
2017-Mar-22 13:00S 48°08' E 162°18'1 0.6 1020.6 11.9
2017-Mar-22 12:00S 48°09' E 162°18'1 0.4 1020.4 11.9
2017-Mar-22 10:00S 48°09' E 162°17'0 0.0 1019.7 11.9
2017-Mar-22 09:00S 48°09' E 162°17'0 0.4 1019.1 11.9
2017-Mar-22 08:00S 48°09' E 162°16'1 1.0 1018.6 11.9
2017-Mar-22 07:00S 48°10' E 162°15'0 0.0 1018.3 11.9
2017-Mar-22 06:00S 48°10' E 162°15'0 0.4 1017.6 11.9
2017-Mar-22 05:00S 48°10' E 162°16'1 1.3 1017.2 11.9
2017-Mar-22 04:00S 48°10' E 162°14'0 0.4 1016.8 11.9
2017-Mar-22 03:00S 48°10' E 162°14'1 0.2 1016.5 11.9
2017-Mar-21 22:00S 48°10' E 162°13'1 0.7 1014.5 11.9
2017-Mar-21 21:00S 48°11' E 162°13'1 0.4 1013.8 12.0
2017-Mar-21 19:00S 48°11' E 162°13'2 1.6 1012.1 12.0
2017-Mar-21 18:00S 48°11' E 162°11'0 0.0 1011.4 12.0
2017-Mar-21 17:00S 48°11' E 162°11'0 0.0 1011.7 12.0
2017-Mar-21 16:00S 48°11' E 162°11'1 1.3 1011.9 12.0
2017-Mar-21 15:00S 48°11' E 162°09'0 0.0 1012.3 12.0
2017-Mar-21 14:00S 48°11' E 162°09'1 0.4 1012.5 12.0
2017-Mar-21 12:00S 48°11' E 162°08'0 0.4 1013.0 11.9
2017-Mar-21 11:00S 48°11' E 162°08'0 0.0 1013.6 11.8
2017-Mar-21 10:00S 48°11' E 162°08'1 1.0 1013.9 11.8
2017-Mar-21 09:00S 48°11' E 162°07'1 0.6 1014.0 11.8
2017-Mar-21 08:00S 48°12' E 162°07'2 1.6 1013.8 11.8
2017-Mar-21 07:00S 48°12' E 162°05'0 0.0 1013.7 11.8
2017-Mar-21 06:00S 48°12' E 162°05'1 1.3 1013.9 11.8
2017-Mar-21 05:00S 48°11' E 162°03'0 0.0 1014.1 11.7
2017-Mar-21 04:00S 48°11' E 162°03'0 0.0 1014.7 11.7
2017-Mar-21 03:00S 48°11' E 162°03'3 0.6 1015.1 11.7
2017-Mar-20 23:00S 48°09' E 162°04'1 1.2 1016.6 11.5
2017-Mar-20 22:00S 48°10' E 162°04'1 0.8 1016.7 11.4
2017-Mar-20 21:00S 48°10' E 162°03'1 0.6 1016.8 11.4
2017-Mar-20 20:00S 48°11' E 162°03'2 1.6 1016.6 11.5
2017-Mar-20 19:00S 48°11' E 162°01'1 0.7 1016.5 11.5
2017-Mar-20 18:00S 48°11' E 162°00'1 0.7 1016.8 11.5
2017-Mar-20 16:00S 48°11' E 161°58'1 1.0 1017.1 11.4
2017-Mar-20 15:00S 48°10' E 161°57'0 0.0 1017.0 11.3
2017-Mar-20 14:00S 48°10' E 161°57'1 1.0 1017.2 11.3
2017-Mar-20 13:00S 48°10' E 161°58'0 0.4 1017.1 11.3
2017-Mar-20 12:00S 48°10' E 161°59'0 0.0 1016.9 11.3
2017-Mar-20 11:00S 48°10' E 161°59'0 0.0 1016.9 11.3
2017-Mar-20 10:00S 48°10' E 161°59'1 0.6 1016.9 11.1
2017-Mar-20 08:00S 48°11' E 161°59'2 1.0 1015.4 11.1
2017-Mar-20 06:00S 48°13' E 161°58'0 0.0 1014.4 11.1
2017-Mar-20 05:00S 48°13' E 161°58'1 0.8 1013.5 11.1
2017-Mar-20 04:00S 48°13' E 161°56'2 0.5 1012.3 11.1
2017-Mar-19 23:00S 48°15' E 161°57'0 0.4 1006.9 11.1
2017-Mar-19 22:00S 48°15' E 161°56'0 0.4 1006.1 11.1
2017-Mar-19 21:00S 48°15' E 161°57'1 0.8 1005.3 11.1
2017-Mar-19 20:00S 48°15' E 161°56'0 0.0 1005.2 11.1
2017-Mar-19 19:00S 48°15' E 161°56'0 0.4 1004.8 11.1
2017-Mar-19 18:00S 48°15' E 161°55'0 0.0 1005.5 11.1
2017-Mar-19 17:00S 48°15' E 161°55'0 0.4 1005.7 11.1
2017-Mar-19 16:00S 48°15' E 161°55'1 0.8 1006.9 11.1
2017-Mar-19 15:00S 48°15' E 161°53'0 0.0 1007.8 11.1
2017-Mar-19 14:00S 48°15' E 161°53'0 0.4 1008.0 11.1
2017-Mar-19 13:00S 48°15' E 161°53'1 0.4 1008.5 11.1
2017-Mar-19 11:00S 48°16' E 161°52'0 0.0 1009.7 11.1
2017-Mar-19 10:00S 48°16' E 161°52'1 0.6 1010.0 11.1
2017-Mar-19 09:00S 48°15' E 161°52'1 0.8 1011.1 11.2
2017-Mar-19 08:00S 48°15' E 161°51'0 0.0 1010.8 11.2
2017-Mar-19 07:00S 48°15' E 161°51'0 0.4 1010.5 11.2
2017-Mar-19 06:00S 48°15' E 161°52'1 1.2 1012.0 11.2
2017-Mar-19 05:00S 48°15' E 161°50'0 0.0 1012.9 11.2
2017-Mar-19 04:00S 48°15' E 161°50'2 1.6 1014.1 11.2
2017-Mar-19 03:00S 48°15' E 161°47'1 0.2 1014.8 11.2
2017-Mar-18 23:00S 48°14' E 161°46'   1019.4 11.1

Dump ship's entire track history